Telemetry
Timestamp Node Air Util TX Channel Util Battery Uptime Voltage Current Barometric Pressure Relative Humidity Temperature Gas Resistance
2026-09-03 09:05:26 ah01 0.33% 0.0% 96% 6215837 4.15 V
2026-09-03 09:05:25 ah01 0.33% 0.0% 96% 6215837 4.15 V
2026-09-03 09:05:21 ah01 0.33% 0.0% 96% 6215837 4.15 V
2026-09-03 09:05:21 ah01 0.33% 0.0% 96% 6215837 4.15 V
2026-09-03 09:05:16 2c98 0.05% 0.0% 101% 741930 4.25 V
2026-09-03 09:05:16 2c98 0.05% 0.0% 101% 741930 4.25 V
2026-09-03 09:05:02 Jim1 0.56% 1.9% 91% 17399425 4.08 V
2026-09-03 09:05:01 Jim1 0.56% 1.9% 91% 17399425 4.08 V
2026-09-03 09:05:01 Jim1 0.56% 1.9% 91% 17399425 4.08 V
2026-09-03 09:05:01 Jim1 0.56% 1.9% 91% 17399425 4.08 V
2026-09-03 09:04:42 tge0 2.25% 2.0% 96% 9865196 4.14 V
2026-09-03 09:04:42 tge0 2.25% 2.0% 96% 9865196 4.14 V
2026-09-03 09:03:11 7274 0.86% 3.4% 101% 2432593 3.77 V
2026-09-03 09:03:11 7274 0.86% 3.4% 101% 2432593 3.77 V
2026-09-03 09:01:59 dfba 0.78% 0.0% 93% 7266 4.1 V
2026-09-03 09:01:59 dfba 0.78% 0.0% 93% 7266 4.1 V
2026-09-03 09:00:15 PTRH 0.37% 0.0% 56% 1455564 3.78 V
2026-09-03 09:00:15 PTRH 0.37% 0.0% 56% 1455564 3.78 V
2026-09-03 09:00:03 RF01 0.27% 5.2% 101% 1444004 4.25 V
2026-09-03 09:00:02 RF01 0.27% 5.2% 101% 1444004 4.25 V
2026-09-03 09:00:02 RF01 0.27% 5.2% 101% 1444004 4.25 V
2026-09-03 08:59:39 IIXF 1.25% 3.4% 101% 1190494 4.31 V
2026-09-03 08:59:39 IIXF 1.25% 3.4% 101% 1190494 4.31 V
2026-09-03 08:58:52 IIXF 854.82 hPa 29.91% 23.36°C 213.2 Ohm
2026-09-03 08:58:52 IIXF 854.82 hPa 29.91% 23.36°C 213.2 Ohm
2026-09-03 08:58:49 EN11 0.03% 15.6% 101% 79926 4.13 V
2026-09-03 08:58:48 EN11 0.03% 15.6% 101% 79926 4.13 V
2026-09-03 08:58:39 PMT2 1.02% 1.8% 101% 1823586 4.2 V
2026-09-03 08:58:37 PMT2 1.02% 1.8% 101% 1823586 4.2 V
2026-09-03 08:58:37 PMT2 1.02% 1.8% 101% 1823586 4.2 V
2026-09-03 08:58:02 PMT2 22.93°C
2026-09-03 08:58:02 PMT2 22.93°C
2026-09-03 08:58:00 PMT2 22.93°C
2026-09-03 08:57:58 PMT2 22.93°C
2026-09-03 08:57:58 PMT2 22.93°C
2026-09-03 08:56:04 LRX1 1006.89 hPa 48.45% 21.19°C
2026-09-03 08:56:02 LRX1 1006.89 hPa 48.45% 21.19°C
2026-09-03 08:56:02 LRX1 1006.89 hPa 48.45% 21.19°C
2026-09-03 08:55:58 LRX1 1006.89 hPa 48.45% 21.19°C
2026-09-03 08:55:58 LRX1 1006.89 hPa 48.45% 21.19°C
2026-09-03 08:53:44 EEPr 0.29% 0.0% 101% 2327121 4.33 V
2026-09-03 08:53:44 EEPr 0.29% 0.0% 101% 2327121 4.33 V
2026-09-03 08:50:32 LMGB 0.16% 0.0% 101% 1041373 -0.0 V
2026-09-03 08:50:32 LMGB 0.16% 0.0% 101% 1041373 -0.0 V
2026-09-03 08:48:42 EN01 0.02% 5.3% 35% 242103 3.59 V
2026-09-03 08:48:41 EN01 0.02% 5.3% 35% 242103 3.59 V
2026-09-03 08:47:25 ah01 0.32% 0.0% 96% 6214756 4.15 V
2026-09-03 08:47:25 ah01 0.32% 0.0% 96% 6214756 4.15 V
2026-09-03 08:47:20 ah01 0.32% 0.0% 96% 6214756 4.15 V
2026-09-03 08:47:20 ah01 0.32% 0.0% 96% 6214756 4.15 V
2026-09-03 08:45:17 ah03 0.86% 5.4% 75% 3922025 3.94 V
2026-09-03 08:45:15 ah03 0.86% 5.4% 75% 3922025 3.94 V
2026-09-03 08:45:14 ah03 0.86% 5.4% 75% 3922025 3.94 V
2026-09-03 08:45:10 ah03 0.86% 5.4% 75% 3922025 3.94 V
2026-09-03 08:45:09 ah03 0.86% 5.4% 75% 3922025 3.94 V
2026-09-03 08:43:49 ah03
2026-09-03 08:43:48 ah03
2026-09-03 08:43:45 ah03
2026-09-03 08:43:44 ah03 696.34 hPa 79.48% 27.0°C
2026-09-03 08:43:44 ah03 696.34 hPa 79.48% 27.0°C
2026-09-03 08:42:36 htec 2.51% 4.0% 101% 85814 4.21 V
2026-09-03 08:42:35 htec 2.51% 4.0% 101% 85814 4.21 V
2026-09-03 08:42:35 htec 2.51% 4.0% 101% 85814 4.21 V
2026-09-03 08:42:29 htec 2.51% 4.0% 101% 85814 4.21 V
2026-09-03 08:42:29 htec 2.51% 4.0% 101% 85814 4.21 V
2026-09-03 08:42:20 EN06 0.39% 0.0% 95% 146181 4.12 V
2026-09-03 08:38:39 IIXF 1.47% 5.1% 96% 1189234 4.14 V
2026-09-03 08:38:39 IIXF 1.47% 5.1% 96% 1189234 4.14 V
2026-09-03 08:37:52 IIXF 854.95 hPa 32.52% 21.36°C 207.18 Ohm
2026-09-03 08:37:52 IIXF 854.95 hPa 32.52% 21.36°C 207.18 Ohm
2026-09-03 08:37:13 DOS 1.13% 3.8% 99% 250402 4.18 V
2026-09-03 08:37:13 DOS 1.13% 3.8% 99% 250402 4.18 V
2026-09-03 08:36:42 EEPa 851.57 hPa 45.01% 20.9°C
2026-09-03 08:36:41 EEPa 851.57 hPa 45.01% 20.9°C
2026-09-03 08:36:01 3bb8 1.48% 7.0% 101% 2400234 5.06 V
2026-09-03 08:36:01 3bb8 1.48% 7.0% 101% 2400234 5.06 V
2026-09-03 08:34:58 LRX1 0.75% 1.9% 101% 8215967 4.83 V
2026-09-03 08:34:58 LRX1 0.75% 1.9% 101% 8215967 4.83 V
2026-09-03 08:34:58 LRX1 0.75% 1.9% 101% 8215967 4.83 V
2026-09-03 08:34:39 PMT2 1.07% 4.4% 101% 1822146 4.2 V
2026-09-03 08:34:37 PMT2 1.07% 4.4% 101% 1822146 4.2 V
2026-09-03 08:34:36 PMT2 1.07% 4.4% 101% 1822146 4.2 V
2026-09-03 08:34:08 J8ke 0.38 V
2026-09-03 08:34:08 J8ke 0.38 V
2026-09-03 08:34:08 J8ke 0.38 V
2026-09-03 08:34:05 PMT2 22.69°C
2026-09-03 08:34:05 PMT2 22.69°C
2026-09-03 08:34:03 J8ke
2026-09-03 08:34:03 J8ke
2026-09-03 08:34:03 J8ke
2026-09-03 08:34:00 PMT2 22.69°C
2026-09-03 08:33:57 PMT2 22.69°C
2026-09-03 08:33:57 PMT2 22.69°C
2026-09-03 08:33:56 5RC 1.13% 0.0% 95% 399981 4.13 V
2026-09-03 08:33:56 5RC 1.13% 0.0% 95% 399981 4.13 V
2026-09-03 08:29:25 ah01 0.36% 0.0% 96% 6213675 4.15 V
2026-09-03 08:29:24 ah01 0.36% 0.0% 96% 6213675 4.15 V
2026-09-03 08:29:19 ah01 0.36% 0.0% 96% 6213675 4.15 V
2026-09-03 08:29:19 ah01 0.36% 0.0% 96% 6213675 4.15 V
2026-09-03 08:27:42 7274 0.87% 1.2% 31% 2430433 3.59 V
2026-09-03 08:27:41 7274 0.87% 1.2% 31% 2430433 3.59 V
2026-09-03 08:24:15 PTRH 0.53% 0.0% 54% 1453404 3.76 V
2026-09-03 08:24:15 PTRH 0.53% 0.0% 54% 1453404 3.76 V
2026-09-03 08:23:38 EEPr 0.51% 0.9% 101% 2325315 4.34 V
2026-09-03 08:23:38 EEPr 0.51% 0.9% 101% 2325315 4.34 V
2026-09-03 08:19:40 Rhee 0.59% 2.0% 95% 66859 4.05 V
2026-09-03 08:19:40 Rhee 0.59% 2.0% 95% 66859 4.05 V
2026-09-03 08:19:40 Rhee 0.59% 2.0% 95% 66859 4.05 V
2026-09-03 08:17:39 IIXF 1.57% 5.6% 98% 1187974 4.16 V
2026-09-03 08:17:39 IIXF 1.57% 5.6% 98% 1187974 4.16 V
2026-09-03 08:16:52 IIXF 855.23 hPa 31.39% 21.83°C 191.58 Ohm
2026-09-03 08:16:52 IIXF 855.23 hPa 31.39% 21.83°C 191.58 Ohm
2026-09-03 08:14:34 ah03 0.86% 23.9% 76% 3920180 3.95 V
2026-09-03 08:14:34 ah03 0.86% 23.9% 76% 3920180 3.95 V
2026-09-03 08:14:31 LMGB 0.35% 0.0% 101% 1039213 -0.0 V
2026-09-03 08:14:31 LMGB 0.35% 0.0% 101% 1039213 -0.0 V
2026-09-03 08:14:29 ah03 0.86% 23.9% 76% 3920180 3.95 V
2026-09-03 08:14:29 ah03 0.86% 23.9% 76% 3920180 3.95 V
2026-09-03 08:14:23 ah03 0.86% 23.9% 76% 3920180 3.95 V
2026-09-03 08:14:22 ah03 0.86% 23.9% 76% 3920180 3.95 V
2026-09-03 08:13:08 ah03 696.34 hPa 78.4% 27.0°C
2026-09-03 08:13:08 ah03 696.34 hPa 78.4% 27.0°C
2026-09-03 08:12:58 ah03 696.34 hPa 78.4% 27.0°C
2026-09-03 08:12:58 ah03 696.34 hPa 78.4% 27.0°C
2026-09-03 08:12:52 ah03 696.34 hPa 78.4% 27.0°C
2026-09-03 08:12:52 ah03 696.34 hPa 78.4% 27.0°C
2026-09-03 08:12:02 RF01 0.31% 6.9% 101% 1441124 4.24 V
2026-09-03 08:12:02 RF01 0.31% 6.9% 101% 1441124 4.24 V
2026-09-03 08:12:02 RF01 0.31% 6.9% 101% 1441124 4.24 V
2026-09-03 08:11:53 J8ke 1.25% 15.1% 101% 242607 5.09 V
2026-09-03 08:11:53 J8ke 1.25% 15.1% 101% 242607 5.09 V
2026-09-03 08:11:53 J8ke 1.25% 15.1% 101% 242607 5.09 V
2026-09-03 08:11:45 ah01 0.36% 0.0% 96% 6212594 4.15 V
2026-09-03 08:11:45 ah01 0.36% 0.0% 96% 6212594 4.15 V
2026-09-03 08:10:57 ah02 90.11% 14.35°C
2026-09-03 08:10:57 ah02 90.11% 14.35°C
2026-09-03 08:10:54 ah02 90.11% 14.35°C
2026-09-03 08:10:54 ah02 90.11% 14.35°C
2026-09-03 08:10:39 ah02 0.04% 25.5% 65% 60 3.85 V
2026-09-03 08:10:38 ah02 0.04% 25.5% 65% 60 3.85 V
2026-09-03 08:10:38 ah02 0.04% 25.5% 65% 60 3.85 V
2026-09-03 08:08:13 LML2 0.38% 0.0% 100% 563864 4.15 V
2026-09-03 08:08:12 LML2 0.38% 0.0% 100% 563864 4.15 V
2026-09-03 08:06:01 EN05 0.53% 0.0% 93% 55093 4.1 V
2026-09-03 08:06:01 EN05 0.53% 0.0% 93% 55093 4.1 V
2026-09-03 08:04:41 PMT2 1.87% 1.8% 101% 1820345 4.2 V
2026-09-03 08:04:40 PMT2 1.87% 1.8% 101% 1820345 4.2 V
2026-09-03 08:04:39 PMT2 1.87% 1.8% 101% 1820345 4.2 V
2026-09-03 08:04:36 PMT2 1.87% 1.8% 101% 1820345 4.2 V
2026-09-03 08:04:36 PMT2 1.87% 1.8% 101% 1820345 4.2 V
2026-09-03 08:04:17 5RC 1006.98 hPa 65.31% 27.65°C
2026-09-03 08:04:17 5RC 1006.98 hPa 65.31% 27.65°C
2026-09-03 08:04:00 PMT2 21.93°C
2026-09-03 08:04:00 PMT2 21.93°C
2026-09-03 08:03:58 PMT2 21.93°C
2026-09-03 08:03:57 PMT2 21.93°C
2026-09-03 08:03:56 PMT2 21.93°C
2026-09-03 08:01:53 RF03 0.1% 0.9% 99% 1210146 4.19 V
2026-09-03 08:01:53 RF03 0.1% 0.9% 99% 1210146 4.19 V
2026-09-03 08:01:53 RF03 0.1% 0.9% 99% 1210146 4.19 V
2026-09-03 08:01:32 fe8a 0.65% 2.0% 93% 3653 4.09 V
2026-09-03 08:01:31 fe8a 0.65% 2.0% 93% 3653 4.09 V
2026-09-03 08:01:31 fe8a 0.65% 2.0% 93% 3653 4.09 V
2026-09-03 08:00:34 EEPa 851.41 hPa 44.51% 20.99°C
2026-09-03 08:00:34 EEPa 851.41 hPa 44.51% 20.99°C
2026-09-03 07:58:49 EN11 0.06% 0.0% 101% 76324 4.13 V
2026-09-03 07:58:49 EN11 0.06% 0.0% 101% 76324 4.13 V
2026-09-03 07:56:41 IIXF 1.52% 4.5% 101% 1186714 4.24 V
2026-09-03 07:56:41 IIXF 1.52% 4.5% 101% 1186714 4.24 V
2026-09-03 07:56:40 IIXF 1.52% 4.5% 101% 1186714 4.24 V
2026-09-03 07:55:52 IIXF 855.16 hPa 28.86% 23.52°C 163.23 Ohm
2026-09-03 07:55:52 IIXF 855.16 hPa 28.86% 23.52°C 163.23 Ohm
2026-09-03 07:53:32 EEPr 0.58% 3.0% 101% 2323509 4.34 V
2026-09-03 07:53:32 EEPr 0.58% 3.0% 101% 2323509 4.34 V
2026-09-03 07:53:22 ah01 0.33% 0.0% 96% 6211513 4.15 V
2026-09-03 07:53:21 ah01 0.33% 0.0% 96% 6211513 4.15 V
2026-09-03 07:53:20 ah01 0.33% 0.0% 96% 6211513 4.15 V
2026-09-03 07:53:17 ah01 0.33% 0.0% 96% 6211513 4.15 V
2026-09-03 07:53:17 ah01 0.33% 0.0% 96% 6211513 4.15 V
2026-09-03 07:51:10 7274 1.05% 2.3% 54% 2428273 3.74 V
2026-09-03 07:51:10 7274 1.05% 2.3% 54% 2428273 3.74 V
2026-09-03 07:49:20 DOS 1.89% 4.1% 100% 247522 4.2 V
2026-09-03 07:49:19 DOS 1.89% 4.1% 100% 247522 4.2 V
2026-09-03 07:49:13 DOS 1.89% 4.1% 100% 247522 4.2 V
2026-09-03 07:49:12 DOS 1.89% 4.1% 100% 247522 4.2 V
2026-09-03 07:48:39 EN01 0.1% 9.7% 37% 238502 3.6 V
2026-09-03 07:48:39 EN01 0.1% 9.7% 37% 238502 3.6 V
2026-09-03 07:48:32 EEPa 0.28% 4.0% 100% 6850397 4.13 V
2026-09-03 07:48:32 EEPa 0.28% 4.0% 100% 6850397 4.13 V
2026-09-03 07:48:15 PTRH 0.53% 4.4% 57% 1451243 3.78 V
2026-09-03 07:48:14 PTRH 0.53% 4.4% 57% 1451243 3.78 V
2026-09-03 07:47:58 3bb8 2.07% 6.2% 101% 2397354 5.06 V
2026-09-03 07:47:57 3bb8 2.07% 6.2% 101% 2397354 5.06 V
2026-09-03 07:47:01 LRX1 1005.12 hPa 48.03% 21.33°C
2026-09-03 07:47:00 LRX1 1005.12 hPa 48.03% 21.33°C
2026-09-03 07:44:23 ah03 0.86% 5.7% 74% 3918367 3.93 V
2026-09-03 07:44:23 ah03 0.86% 5.7% 74% 3918367 3.93 V
2026-09-03 07:44:18 ah03 0.86% 5.7% 74% 3918367 3.93 V
2026-09-03 07:44:17 ah03 0.86% 5.7% 74% 3918367 3.93 V
2026-09-03 07:44:17 ah03 0.86% 5.7% 74% 3918367 3.93 V
2026-09-03 07:42:57 ah03
2026-09-03 07:42:57 ah03
2026-09-03 07:42:53 ah03
2026-09-03 07:42:52 ah03
2026-09-03 07:42:50 ah03
2026-09-03 07:42:49 ah03
2026-09-03 07:42:48 ah03 696.34 hPa 79.17% 27.0°C
2026-09-03 07:42:46 ah03 696.34 hPa 79.17% 27.0°C
2026-09-03 07:42:45 ah03 696.34 hPa 79.17% 27.0°C
2026-09-03 07:42:25 htec 3.08% 4.0% 101% 82210 4.28 V
2026-09-03 07:42:25 htec 3.08% 4.0% 101% 82210 4.28 V
2026-09-03 07:42:20 EN06 0.24% 0.0% 79% 142580 3.98 V
2026-09-03 07:42:19 EN06 0.24% 0.0% 79% 142580 3.98 V
2026-09-03 07:40:40 PMT2 2.02% 1.8% 101% 1818905 4.2 V
2026-09-03 07:40:39 PMT2 2.02% 1.8% 101% 1818905 4.2 V
2026-09-03 07:40:38 PMT2 2.02% 1.8% 101% 1818905 4.2 V
2026-09-03 07:40:36 PMT2 2.02% 1.8% 101% 1818905 4.2 V
2026-09-03 07:40:35 PMT2 2.02% 1.8% 101% 1818905 4.2 V
2026-09-03 07:40:00 PMT2 21.73°C
2026-09-03 07:40:00 PMT2 21.73°C
2026-09-03 07:40:00 PMT2 21.73°C
2026-09-03 07:39:56 PMT2 21.73°C
2026-09-03 07:39:56 PMT2 21.73°C
2026-09-03 07:38:31 LMGB 0.43% 2.2% 101% 1037053 -0.0 V
2026-09-03 07:38:31 LMGB 0.43% 2.2% 101% 1037053 -0.0 V
2026-09-03 07:37:12 c238 0.01% 0.9% 101% 45 4.21 V
2026-09-03 07:37:12 c238 0.01% 0.9% 101% 45 4.21 V
2026-09-03 07:35:45 IIXF 1.42% 4.0% 70% 1185454 3.9 V
2026-09-03 07:35:45 IIXF 1.42% 4.0% 70% 1185454 3.9 V
2026-09-03 07:34:52 IIXF 855.33 hPa 30.38% 23.87°C 130.53 Ohm
2026-09-03 07:34:52 IIXF 855.33 hPa 30.38% 23.87°C 130.53 Ohm
2026-09-03 07:34:17 5RC 1006.98 hPa 68.09% 22.82°C
2026-09-03 07:34:16 5RC 1006.98 hPa 68.09% 22.82°C
2026-09-03 07:32:50 tge0 2.99% 9.1% 94% 9859675 4.11 V
2026-09-03 07:32:50 tge0 2.99% 9.1% 94% 9859675 4.11 V
2026-09-03 07:32:50 tge0 2.99% 9.1% 94% 9859675 4.11 V
2026-09-03 07:32:42 tge0 2.99% 9.1% 94% 9859675 4.11 V
2026-09-03 07:32:42 tge0 2.99% 9.1% 94% 9859675 4.11 V
2026-09-03 07:32:12 LML2 0.41% 0.0% 100% 561704 4.15 V
2026-09-03 07:32:12 LML2 0.41% 0.0% 100% 561704 4.15 V
2026-09-03 07:31:56 RF03 0.04% 0.0% 99% 1208346 4.19 V
2026-09-03 07:31:56 RF03 0.04% 0.0% 99% 1208346 4.19 V
2026-09-03 07:31:56 RF03 0.04% 0.0% 99% 1208346 4.19 V
2026-09-03 07:31:53 RF03 0.04% 0.0% 99% 1208346 4.19 V
2026-09-03 07:31:52 RF03 0.04% 0.0% 99% 1208346 4.19 V
2026-09-03 07:31:52 RF03 0.04% 0.0% 99% 1208346 4.19 V
2026-09-03 07:24:27 EEPa 851.33 hPa 46.07% 21.09°C
2026-09-03 07:24:27 EEPa 851.33 hPa 46.07% 21.09°C
2026-09-03 07:24:02 RF01 0.39% 6.1% 101% 1438243 4.25 V
2026-09-03 07:24:02 RF01 0.39% 6.1% 101% 1438243 4.25 V
2026-09-03 07:24:02 RF01 0.39% 6.1% 101% 1438243 4.25 V
2026-09-03 07:23:26 EEPr 0.44% 0.9% 101% 2321702 4.34 V
2026-09-03 07:23:25 EEPr 0.44% 0.9% 101% 2321702 4.34 V
2026-09-03 07:17:21 ah01 0.29% 0.0% 96% 6209351 4.15 V
2026-09-03 07:17:18 ah01 0.29% 0.0% 96% 6209351 4.15 V
2026-09-03 07:17:15 ah01 0.29% 0.0% 96% 6209351 4.15 V
2026-09-03 07:17:15 ah01 0.29% 0.0% 96% 6209351 4.15 V
2026-09-03 07:16:36 PMT2 1.55% 14.5% 101% 1817464 4.2 V
2026-09-03 07:16:35 PMT2 1.55% 14.5% 101% 1817464 4.2 V
2026-09-03 07:15:57 PMT2 22.19°C
2026-09-03 07:15:55 PMT2 22.19°C
2026-09-03 07:15:55 PMT2 22.19°C
2026-09-03 07:15:47 MJTM 1.8% 10.2% 101% 4476048 4.2 V
2026-09-03 07:15:47 MJTM 1.8% 10.2% 101% 4476048 4.2 V
2026-09-03 07:15:45 MJTM 1.8% 10.2% 101% 4476048 4.2 V
2026-09-03 07:15:43 MJTM 1.8% 10.2% 101% 4476048 4.2 V
2026-09-03 07:15:43 MJTM 1.8% 10.2% 101% 4476048 4.2 V
2026-09-03 07:15:10 7274 1.07% 3.6% 61% 2426112 3.81 V
2026-09-03 07:15:10 7274 1.07% 3.6% 61% 2426112 3.81 V
2026-09-03 07:14:39 IIXF 1.37% 5.6% 69% 1184194 3.88 V
2026-09-03 07:14:39 IIXF 1.37% 5.6% 69% 1184194 3.88 V
2026-09-03 07:13:56 IIXF 855.44 hPa 34.76% 20.96°C 128.73 Ohm
2026-09-03 07:13:55 IIXF 855.44 hPa 34.76% 20.96°C 128.73 Ohm
2026-09-03 07:13:53 IIXF 855.44 hPa 34.76% 20.96°C 128.73 Ohm
2026-09-03 07:13:53 IIXF 855.44 hPa 34.76% 20.96°C 128.73 Ohm
2026-09-03 07:13:17 ah03 0.86% 4.7% 73% 3916500 3.93 V
2026-09-03 07:13:15 ah03 0.86% 4.7% 73% 3916500 3.93 V
2026-09-03 07:13:15 ah03 0.86% 4.7% 73% 3916500 3.93 V
2026-09-03 07:13:10 ah03 0.86% 4.7% 73% 3916500 3.93 V
2026-09-03 07:13:10 ah03 0.86% 4.7% 73% 3916500 3.93 V
2026-09-03 07:12:14 PTRH 0.35% 0.0% 54% 1449083 3.75 V
2026-09-03 07:12:14 PTRH 0.35% 0.0% 54% 1449083 3.75 V
2026-09-03 07:11:58 ah03 696.34 hPa 80.15% 27.0°C
2026-09-03 07:11:58 ah03
2026-09-03 07:11:57 ah03
2026-09-03 07:11:55 ah03 696.34 hPa 80.15% 27.0°C
2026-09-03 07:11:54 ah03 696.34 hPa 80.15% 27.0°C
2026-09-03 07:08:23 ah02 84.4% 15.15°C
2026-09-03 07:08:22 ah02 84.4% 15.15°C
2026-09-03 07:08:22 ah02 84.4% 15.15°C
2026-09-03 07:08:19 ah02 84.4% 15.15°C
2026-09-03 07:07:58 ah02 0.04% 16.4% 66% 61 3.85 V
2026-09-03 07:07:57 ah02 0.04% 16.4% 66% 61 3.85 V
2026-09-03 07:07:56 ah02 0.04% 16.4% 66% 61 3.85 V
2026-09-03 07:07:54 ah02 0.04% 16.4% 66% 61 3.85 V
2026-09-03 07:07:54 ah02 0.04% 16.4% 66% 61 3.85 V
2026-09-03 07:07:34 Rhee 0.74% 13.3% 95% 62538 4.05 V
2026-09-03 07:07:34 Rhee 0.74% 13.3% 95% 62538 4.05 V
2026-09-03 07:03:51 5RC 0.65% 0.0% 96% 394579 4.14 V
2026-09-03 07:02:31 LMGB 0.27% 0.6% 101% 1034893 -0.0 V
2026-09-03 07:02:31 LMGB 0.27% 0.6% 101% 1034893 -0.0 V
2026-09-03 07:02:09 LRX1 0.58% 4.4% 101% 8210386 4.84 V
2026-09-03 07:02:09 LRX1 0.58% 4.4% 101% 8210386 4.84 V
2026-09-03 07:02:01 LRX1 0.58% 4.4% 101% 8210386 4.84 V
2026-09-03 07:02:01 LRX1 0.58% 4.4% 101% 8210386 4.84 V
2026-09-03 07:01:52 RF03 0.05% 1.1% 99% 1206545 4.19 V
2026-09-03 07:01:52 RF03 0.05% 1.1% 99% 1206545 4.19 V
2026-09-03 07:01:52 RF03 0.05% 1.1% 99% 1206545 4.19 V
2026-09-03 07:01:26 DOS 1.12% 1.8% 101% 244641 4.2 V
2026-09-03 07:01:25 DOS 1.12% 1.8% 101% 244641 4.2 V
2026-09-03 07:01:25 DOS 1.12% 1.8% 101% 244641 4.2 V
2026-09-03 07:01:25 8848 0.06% 10.1% 93% 53 4.1 V
2026-09-03 07:01:24 8848 0.06% 10.1% 93% 53 4.1 V
2026-09-03 07:01:24 8848 0.06% 10.1% 93% 53 4.1 V
2026-09-03 07:01:13 DOS 1.12% 1.8% 101% 244641 4.2 V
2026-09-03 07:01:12 DOS 1.12% 1.8% 101% 244641 4.2 V
2026-09-03 06:58:45 EN11 0.05% 6.6% 101% 72721 4.14 V
2026-09-03 06:58:21 IIXF 856.26 hPa 26.59% 23.64°C 129.53 Ohm
2026-09-03 06:58:21 IIXF 856.26 hPa 26.59% 23.64°C 129.53 Ohm
2026-09-03 06:57:23 dc64 0.15% 0.0% 74% 1327633 3.94 V
2026-09-03 06:57:23 dc64 0.15% 0.0% 74% 1327633 3.94 V
2026-09-03 06:57:23 dc64 0.15% 0.0% 74% 1327633 3.94 V
2026-09-03 06:56:12 LML2 0.35% 1.1% 100% 559544 4.15 V
2026-09-03 06:56:12 LML2 0.35% 1.1% 100% 559544 4.15 V
2026-09-03 06:54:58 3bb8 1.55% 4.4% 101% 2394174 5.06 V
2026-09-03 06:54:58 3bb8 1.55% 4.4% 101% 2394174 5.06 V
2026-09-03 06:53:39 IIXF 1.34% 3.5% 96% 1182934 4.14 V
2026-09-03 06:53:39 IIXF 1.34% 3.5% 96% 1182934 4.14 V
2026-09-03 06:53:19 EEPr 0.36% 0.0% 101% 2319896 4.34 V
2026-09-03 06:53:19 EEPr 0.36% 0.0% 101% 2319896 4.34 V
2026-09-03 06:52:52 IIXF 855.25 hPa 43.6% 16.35°C 121.48 Ohm
2026-09-03 06:52:52 IIXF 855.25 hPa 43.6% 16.35°C 121.48 Ohm
2026-09-03 06:52:41 PMT2 1.28% 4.9% 101% 1816023 4.2 V
2026-09-03 06:52:41 PMT2 1.28% 4.9% 101% 1816023 4.2 V
2026-09-03 06:52:37 PMT2 1.28% 4.9% 101% 1816023 4.2 V
2026-09-03 06:52:35 PMT2 1.28% 4.9% 101% 1816023 4.2 V
2026-09-03 06:52:34 PMT2 1.28% 4.9% 101% 1816023 4.2 V
2026-09-03 06:52:00 PMT2 21.55°C
2026-09-03 06:52:00 PMT2 21.55°C
2026-09-03 06:51:57 PMT2 21.55°C
2026-09-03 06:51:55 PMT2 21.55°C
2026-09-03 06:51:55 PMT2 21.55°C
2026-09-03 06:49:25 htec 2.31% 7.2% 101% 79029 4.29 V
2026-09-03 06:49:24 htec 2.31% 7.2% 101% 79029 4.29 V
2026-09-03 06:48:20 EEPa 851.04 hPa 45.36% 21.25°C
2026-09-03 06:48:19 EEPa 851.04 hPa 45.36% 21.25°C
2026-09-03 06:43:07 ah03 0.86% 5.8% 74% 3914692 3.93 V
2026-09-03 06:43:07 ah03 0.86% 5.8% 74% 3914692 3.93 V
2026-09-03 06:43:01 ah03 0.86% 5.8% 74% 3914692 3.93 V
2026-09-03 06:43:01 ah03 0.86% 5.8% 74% 3914692 3.93 V
2026-09-03 06:42:03 ah03 696.34 hPa 80.24% 27.0°C
2026-09-03 06:42:01 ah03 696.34 hPa 80.24% 27.0°C
2026-09-03 06:42:01 ah03 696.34 hPa 80.24% 27.0°C
2026-09-03 06:41:52 ah03
2026-09-03 06:41:51 ah03 696.34 hPa 80.24% 27.0°C
2026-09-03 06:41:50 ah03 696.34 hPa 80.24% 27.0°C
2026-09-03 06:41:35 XYZJ 1.1% 7.7% 40% 652879 3.63 V
2026-09-03 06:41:35 XYZJ 1.1% 7.7% 40% 652879 3.63 V
2026-09-03 06:41:35 XYZJ 1.1% 7.7% 40% 652879 3.63 V
2026-09-03 06:41:18 ah01 0.24% 0.0% 96% 6207189 4.15 V
2026-09-03 06:41:17 ah01 0.24% 0.0% 96% 6207189 4.15 V
2026-09-03 06:41:16 ah01 0.24% 0.0% 96% 6207189 4.15 V
2026-09-03 06:41:13 ah01 0.24% 0.0% 96% 6207189 4.15 V
2026-09-03 06:41:13 ah01 0.24% 0.0% 96% 6207189 4.15 V
2026-09-03 06:39:24 7274 0.96% 3.6% 66% 2423952 3.84 V
2026-09-03 06:39:24 7274 0.96% 3.6% 66% 2423952 3.84 V
2026-09-03 06:38:11 LRX1 1003.2 hPa 47.57% 21.4°C
2026-09-03 06:38:09 LRX1 1003.2 hPa 47.57% 21.4°C
2026-09-03 06:38:09 LRX1 1003.2 hPa 47.57% 21.4°C
2026-09-03 06:38:09 LRX1 1003.2 hPa 47.57% 21.4°C
2026-09-03 06:38:04 LRX1 0.67% 0.0% 101% 8208946 4.84 V
2026-09-03 06:38:02 LRX1 0.67% 0.0% 101% 8208946 4.84 V
2026-09-03 06:38:02 LRX1 0.67% 0.0% 101% 8208946 4.84 V
2026-09-03 06:38:02 LRX1 0.67% 0.0% 101% 8208946 4.84 V
2026-09-03 06:36:14 PTRH 0.32% 0.0% 58% 1446923 3.78 V
2026-09-03 06:36:14 PTRH 0.32% 0.0% 58% 1446923 3.78 V
2026-09-03 06:36:02 RF01 0.3% 2.8% 98% 1435363 4.18 V
2026-09-03 06:36:02 RF01 0.3% 2.8% 98% 1435363 4.18 V
2026-09-03 06:36:02 RF01 0.3% 2.8% 98% 1435363 4.18 V
2026-09-03 06:35:59 EN05 0.37% 4.3% 95% 49690 4.12 V
2026-09-03 06:35:55 J8ke 1.03% 2.8% 101% 236828 5.09 V
2026-09-03 06:35:55 J8ke 1.03% 2.8% 101% 236828 5.09 V
2026-09-03 06:35:55 J8ke 1.03% 2.8% 101% 236828 5.09 V
2026-09-03 06:32:38 IIXF 1.44% 6.4% 101% 1181673 4.4 V
2026-09-03 06:32:37 IIXF 1.44% 6.4% 101% 1181673 4.4 V
2026-09-03 06:31:52 RF03 0.07% 0.0% 99% 1204744 4.19 V
2026-09-03 06:31:51 RF03 0.07% 0.0% 99% 1204744 4.19 V
2026-09-03 06:31:51 IIXF 855.22 hPa 51.13% 13.3°C 98.66 Ohm
2026-09-03 06:31:51 RF03 0.07% 0.0% 99% 1204744 4.19 V
2026-09-03 06:31:51 IIXF 855.22 hPa 51.13% 13.3°C 98.66 Ohm
2026-09-03 06:26:31 LMGB 0.28% 0.6% 101% 1032732 -0.0 V
2026-09-03 06:26:30 LMGB 0.28% 0.6% 101% 1032732 -0.0 V
2026-09-03 06:23:17 ah01 0.27% 0.0% 96% 6206108 4.15 V
2026-09-03 06:23:17 ah01 0.27% 0.0% 96% 6206108 4.15 V
2026-09-03 06:23:15 ah01 0.27% 0.0% 96% 6206108 4.15 V
2026-09-03 06:23:13 EEPr 0.36% 2.8% 101% 2318090 4.34 V
2026-09-03 06:23:13 ah01 0.27% 0.0% 96% 6206108 4.15 V
2026-09-03 06:23:13 EEPr 0.36% 2.8% 101% 2318090 4.34 V
2026-09-03 06:23:12 ah01 0.27% 0.0% 96% 6206108 4.15 V
2026-09-03 06:22:38 PMT2 1.53% 6.7% 101% 1814223 4.2 V
2026-09-03 06:22:37 PMT2 1.53% 6.7% 101% 1814223 4.2 V
2026-09-03 06:22:37 PMT2 1.53% 6.7% 101% 1814223 4.2 V
2026-09-03 06:22:34 PMT2 1.53% 6.7% 101% 1814223 4.2 V
2026-09-03 06:22:34 PMT2 1.53% 6.7% 101% 1814223 4.2 V
2026-09-03 06:22:06 PMT2 21.14°C
2026-09-03 06:22:05 PMT2 21.14°C
2026-09-03 06:21:57 PMT2 21.14°C
2026-09-03 06:21:54 PMT2 21.14°C
2026-09-03 06:21:54 PMT2 21.14°C
2026-09-03 06:20:58 DJMH 0.36% 0.0% 86% 16933597 4.03 V
2026-09-03 06:20:57 DJMH 0.36% 0.0% 86% 16933597 4.03 V
2026-09-03 06:19:37 Rhee 0.82% 2.3% 95% 59658 4.06 V
2026-09-03 06:19:37 Rhee 0.82% 2.3% 95% 59658 4.06 V
2026-09-03 06:14:15 LRX1 1003.11 hPa 47.18% 21.53°C
2026-09-03 06:14:13 LRX1 1003.11 hPa 47.18% 21.53°C
2026-09-03 06:14:13 LRX1 1003.11 hPa 47.18% 21.53°C
2026-09-03 06:13:58 LRX1 0.92% 2.1% 101% 8207506 4.84 V
2026-09-03 06:13:57 LRX1 0.92% 2.1% 101% 8207506 4.84 V
2026-09-03 06:13:57 LRX1 0.92% 2.1% 101% 8207506 4.84 V
2026-09-03 06:13:57 LRX1 0.92% 2.1% 101% 8207506 4.84 V
2026-09-03 06:13:30 DOS 1.29% 2.0% 100% 241761 4.2 V
2026-09-03 06:13:28 DOS 1.29% 2.0% 100% 241761 4.2 V
2026-09-03 06:13:28 DOS 1.29% 2.0% 100% 241761 4.2 V
2026-09-03 06:13:13 DOS 1.29% 2.0% 100% 241761 4.2 V
2026-09-03 06:13:12 DOS 1.29% 2.0% 100% 241761 4.2 V
2026-09-03 06:12:22 ah03 0.86% 4.8% 74% 3912845 3.93 V
2026-09-03 06:12:22 ah03 0.86% 4.8% 74% 3912845 3.93 V
2026-09-03 06:12:21 ah03 0.86% 4.8% 74% 3912845 3.93 V
2026-09-03 06:12:18 ah03 0.86% 4.8% 74% 3912845 3.93 V
2026-09-03 06:12:18 ah03 0.86% 4.8% 74% 3912845 3.93 V
2026-09-03 06:12:11 EEPa 851.01 hPa 45.26% 21.52°C
2026-09-03 06:12:11 EEPa 851.01 hPa 45.26% 21.52°C
2026-09-03 06:11:38 IIXF 1.47% 2.3% 101% 1180412 4.38 V
2026-09-03 06:11:38 IIXF 1.47% 2.3% 101% 1180412 4.38 V
2026-09-03 06:11:34 J8ke 1.18% 0.0% 101% 235383 5.09 V
2026-09-03 06:11:34 J8ke 1.18% 0.0% 101% 235383 5.09 V
2026-09-03 06:11:33 J8ke 1.18% 0.0% 101% 235383 5.09 V
2026-09-03 06:11:12 ah03
2026-09-03 06:11:11 ah03
2026-09-03 06:11:11 ah03
2026-09-03 06:11:11 ah03
2026-09-03 06:11:07 ah03 696.34 hPa 80.39% 27.0°C
2026-09-03 06:11:06 ah03 696.34 hPa 80.39% 27.0°C
2026-09-03 06:10:51 IIXF 855.1 hPa 50.21% 13.31°C 121.13 Ohm
2026-09-03 06:10:51 IIXF 855.1 hPa 50.21% 13.31°C 121.13 Ohm
2026-09-03 06:06:01 EN05 0.33% 0.0% 96% 47889 4.14 V
2026-09-03 06:06:00 EN05 0.33% 0.0% 96% 47889 4.14 V
2026-09-03 06:05:57 ah02 79.61% 15.64°C
2026-09-03 06:05:57 ah02 79.61% 15.64°C
2026-09-03 06:05:56 ah02 79.61% 15.64°C
2026-09-03 06:05:56 EN05 0.33% 0.0% 96% 47889 4.14 V
2026-09-03 06:05:54 ah02 79.61% 15.64°C
2026-09-03 06:05:53 ah02 79.61% 15.64°C
2026-09-03 06:05:32 ah02 0.04% 15.2% 66% 60 3.86 V
2026-09-03 06:05:31 ah02 0.04% 15.2% 66% 60 3.86 V
2026-09-03 06:05:31 ah02 0.04% 15.2% 66% 60 3.86 V
2026-09-03 06:05:31 ah02 0.04% 15.2% 66% 60 3.86 V
2026-09-03 06:05:16 ah01 0.3% 0.0% 96% 6205027 4.15 V
2026-09-03 06:05:15 ah01 0.3% 0.0% 96% 6205027 4.15 V
2026-09-03 06:05:14 ah01 0.3% 0.0% 96% 6205027 4.15 V
2026-09-03 06:05:11 ah01 0.3% 0.0% 96% 6205027 4.15 V
2026-09-03 06:05:11 ah01 0.3% 0.0% 96% 6205027 4.15 V
2026-09-03 06:03:45 5RC 0.53% 0.0% 95% 390978 4.13 V
2026-09-03 06:03:45 5RC 1007.02 hPa 68.58% 20.26°C
2026-09-03 06:03:44 5RC 0.53% 0.0% 95% 390978 4.13 V
2026-09-03 06:03:10 7274 1.02% 1.2% 70% 2421792 3.88 V
2026-09-03 06:03:09 7274 1.02% 1.2% 70% 2421792 3.88 V
2026-09-03 06:01:59 RF03 0.07% 1.0% 99% 1202943 4.19 V
2026-09-03 06:01:58 RF03 0.07% 1.0% 99% 1202943 4.19 V
2026-09-03 06:01:58 RF03 0.07% 1.0% 99% 1202943 4.19 V
2026-09-03 06:01:51 RF03 0.07% 1.0% 99% 1202943 4.19 V
2026-09-03 06:01:51 RF03 0.07% 1.0% 99% 1202943 4.19 V
2026-09-03 06:01:51 RF03 0.07% 1.0% 99% 1202943 4.19 V
2026-09-03 06:00:14 PTRH 0.36% 0.0% 48% 1444763 3.7 V
2026-09-03 06:00:14 PTRH 0.36% 0.0% 48% 1444763 3.7 V
2026-09-03 06:00:09 EEPa 0.14% 0.0% 100% 6843894 4.14 V
2026-09-03 06:00:09 EEPa 0.14% 0.0% 100% 6843894 4.14 V
2026-09-03 05:58:59 Jim1 1.27% 2.9% 92% 17388264 4.08 V
2026-09-03 05:58:59 Jim1 1.27% 2.9% 92% 17388264 4.08 V
2026-09-03 05:56:44 tge0 1.91% 5.3% 93% 9853915 4.1 V
2026-09-03 05:56:44 tge0 1.91% 5.3% 93% 9853915 4.1 V
2026-09-03 05:56:42 tge0 1.91% 5.3% 93% 9853915 4.1 V
2026-09-03 05:56:42 tge0 1.91% 5.3% 93% 9853915 4.1 V
2026-09-03 05:56:29 htec 2.51% 2.1% 101% 75849 4.24 V
2026-09-03 05:56:29 htec 2.51% 2.1% 101% 75849 4.24 V
2026-09-03 05:56:28 htec 2.51% 2.1% 101% 75849 4.24 V
2026-09-03 05:56:24 htec 2.51% 2.1% 101% 75849 4.24 V
2026-09-03 05:56:24 htec 2.51% 2.1% 101% 75849 4.24 V
2026-09-03 05:54:57 3bb8 1.77% 4.1% 101% 2390574 5.06 V
2026-09-03 05:54:57 3bb8 1.77% 4.1% 101% 2390574 5.06 V
2026-09-03 05:53:38 IIXF 1.47% 2.3% 101% 1179332 4.38 V
2026-09-03 05:53:37 IIXF 1.47% 2.3% 101% 1179332 4.38 V
2026-09-03 05:53:07 EEPr 0.34% 2.8% 101% 2316284 4.34 V
2026-09-03 05:53:07 EEPr 0.34% 2.8% 101% 2316284 4.34 V
2026-09-03 05:52:53 PMT2 20.98°C
2026-09-03 05:52:53 PMT2 20.98°C
2026-09-03 05:52:51 IIXF 854.97 hPa 49.4% 13.78°C 120.43 Ohm
2026-09-03 05:52:51 IIXF 854.97 hPa 49.4% 13.78°C 120.43 Ohm
2026-09-03 05:52:36 PMT2 1.59% 1.1% 101% 1812422 4.2 V
2026-09-03 05:52:34 PMT2 1.59% 1.1% 101% 1812422 4.2 V
2026-09-03 05:52:33 PMT2 1.59% 1.1% 101% 1812422 4.2 V
2026-09-03 05:50:30 LMGB 0.36% 0.5% 101% 1030572 -0.0 V
2026-09-03 05:50:30 LMGB 0.36% 0.5% 101% 1030572 -0.0 V
2026-09-03 05:49:59 LRX1 0.92% 0.0% 101% 8206066 4.84 V
2026-09-03 05:49:58 LRX1 0.92% 0.0% 101% 8206066 4.84 V
2026-09-03 05:49:58 LRX1 0.92% 0.0% 101% 8206066 4.84 V
2026-09-03 05:48:08 RF01 0.28% 5.8% 101% 1432483 4.25 V
2026-09-03 05:48:08 RF01 0.28% 5.8% 101% 1432483 4.25 V
2026-09-03 05:48:02 RF01 0.28% 5.8% 101% 1432483 4.25 V
2026-09-03 05:48:01 RF01 0.28% 5.8% 101% 1432483 4.25 V
2026-09-03 05:48:01 RF01 0.28% 5.8% 101% 1432483 4.25 V
2026-09-03 05:47:39 EN01 0.02% 0.0% 40% 231241 3.63 V
2026-09-03 05:47:28 J8ke 1.17% 1.1% 101% 233939 5.08 V
2026-09-03 05:47:27 J8ke 1.17% 1.1% 101% 233939 5.08 V
2026-09-03 05:47:27 J8ke 1.17% 1.1% 101% 233939 5.08 V
2026-09-03 05:47:23 ah01 0.36% 0.0% 96% 6203946 4.15 V
2026-09-03 05:47:22 ah01 0.36% 0.0% 96% 6203946 4.15 V
2026-09-03 05:47:13 ah01 0.36% 0.0% 96% 6203946 4.15 V
2026-09-03 05:47:10 ah01 0.36% 0.0% 96% 6203946 4.15 V
2026-09-03 05:47:10 ah01 0.36% 0.0% 96% 6203946 4.15 V
2026-09-03 05:45:48 dc64 0.15% 0.0% 75% 1323313 3.95 V
2026-09-03 05:45:48 dc64 0.15% 0.0% 75% 1323313 3.95 V
2026-09-03 05:45:48 dc64 0.15% 0.0% 75% 1323313 3.95 V
2026-09-03 05:44:12 LML2 0.35% 0.0% 100% 555223 4.14 V
2026-09-03 05:44:11 LML2 0.35% 0.0% 100% 555223 4.14 V
2026-09-03 05:41:50 ah03 0.86% 3.7% 74% 3911011 3.94 V
2026-09-03 05:41:50 ah03 0.86% 3.7% 74% 3911011 3.94 V
2026-09-03 05:41:48 ah03 0.86% 3.7% 74% 3911011 3.94 V
2026-09-03 05:41:47 ah03 0.86% 3.7% 74% 3911011 3.94 V
2026-09-03 05:41:46 ah03 0.86% 3.7% 74% 3911011 3.94 V
2026-09-03 05:40:38 ah03 696.34 hPa 80.46% 27.0°C
2026-09-03 05:40:37 ah03 696.34 hPa 80.46% 27.0°C
2026-09-03 05:40:36 ah03
2026-09-03 05:40:35 ah03 696.34 hPa 80.46% 27.0°C
2026-09-03 05:40:34 ah03 696.34 hPa 80.46% 27.0°C
2026-09-03 05:36:04 EEPa 851.01 hPa 45.22% 21.65°C
2026-09-03 05:36:04 EEPa 851.01 hPa 45.22% 21.65°C
2026-09-03 05:36:00 EN05 0.41% 5.3% 98% 46089 4.16 V
2026-09-03 05:35:38 IIXF 1.4% 4.0% 101% 1178252 4.37 V
2026-09-03 05:35:37 IIXF 1.4% 4.0% 101% 1178252 4.37 V
2026-09-03 05:34:51 IIXF 854.94 hPa 48.03% 14.23°C 117.82 Ohm
2026-09-03 05:34:51 IIXF 854.94 hPa 48.03% 14.23°C 117.82 Ohm
2026-09-03 05:34:03 5RC 1007.37 hPa 68.65% 20.09°C
2026-09-03 05:34:03 5RC 1007.37 hPa 68.65% 20.09°C
2026-09-03 05:33:45 5RC 1007.37 hPa 68.65% 20.09°C
2026-09-03 05:33:44 5RC 0.71% 0.0% 93% 389177 4.1 V
2026-09-03 05:33:44 5RC 0.71% 0.0% 93% 389177 4.1 V
2026-09-03 05:32:34 BB04 0.95% 11.1% 101% 893712 -0.0 V
2026-09-03 05:32:33 BB04 0.95% 11.1% 101% 893712 -0.0 V
2026-09-03 05:32:30 BB04 0.95% 11.1% 101% 893712 -0.0 V
2026-09-03 05:32:30 BB04 0.95% 11.1% 101% 893712 -0.0 V
2026-09-03 05:32:30 BB04 0.95% 11.1% 101% 893712 -0.0 V
2026-09-03 05:31:54 RF03 0.06% 0.0% 100% 1201143 4.19 V
2026-09-03 05:31:54 RF03 0.06% 0.0% 100% 1201143 4.19 V
2026-09-03 05:31:54 RF03 0.06% 0.0% 100% 1201143 4.19 V
2026-09-03 05:31:50 RF03 0.06% 0.0% 100% 1201143 4.19 V
2026-09-03 05:31:49 RF03 0.06% 0.0% 100% 1201143 4.19 V
2026-09-03 05:31:49 RF03 0.06% 0.0% 100% 1201143 4.19 V
2026-09-03 05:27:11 7274 1.08% 1.1% 74% 2419632 3.91 V
2026-09-03 05:27:11 7274 1.08% 1.1% 74% 2419632 3.91 V
2026-09-03 05:26:22 ah01 0.39% 2.0% 96% 6202685 4.15 V
2026-09-03 05:26:21 ah01 0.39% 2.0% 96% 6202685 4.15 V
2026-09-03 05:26:13 ah01 0.39% 2.0% 96% 6202685 4.15 V
2026-09-03 05:26:13 ah01 0.39% 2.0% 96% 6202685 4.15 V
2026-09-03 05:26:09 ah01 0.39% 2.0% 96% 6202685 4.15 V
2026-09-03 05:26:09 ah01 0.39% 2.0% 96% 6202685 4.15 V
2026-09-03 05:26:03 LRX1 1002.58 hPa 46.88% 21.59°C
2026-09-03 05:26:01 LRX1 1002.58 hPa 46.88% 21.59°C
2026-09-03 05:26:01 LRX1 1002.58 hPa 46.88% 21.59°C
2026-09-03 05:25:18 DOS 1.32% 4.1% 101% 238881 4.22 V
2026-09-03 05:25:16 DOS 1.32% 4.1% 101% 238881 4.22 V
2026-09-03 05:25:16 DOS 1.32% 4.1% 101% 238881 4.22 V
2026-09-03 05:25:12 DOS 1.32% 4.1% 101% 238881 4.22 V
2026-09-03 05:25:12 DOS 1.32% 4.1% 101% 238881 4.22 V
2026-09-03 05:24:14 PTRH 0.33% 0.0% 49% 1442602 3.72 V
2026-09-03 05:24:13 PTRH 0.33% 0.0% 49% 1442602 3.72 V
2026-09-03 05:23:23 J8ke 1.28% 8.4% 101% 232493 5.08 V
2026-09-03 05:23:23 J8ke 1.28% 8.4% 101% 232493 5.08 V
2026-09-03 05:23:23 J8ke 1.28% 8.4% 101% 232493 5.08 V
2026-09-03 05:23:01 EEPr 0.25% 0.0% 101% 2314477 4.34 V
2026-09-03 05:23:00 EEPr 0.25% 0.0% 101% 2314477 4.34 V
2026-09-03 05:22:56 PMT2 21.33°C
2026-09-03 05:22:56 PMT2 21.33°C
2026-09-03 05:22:55 PMT2 21.33°C
2026-09-03 05:22:53 PMT2 21.33°C
2026-09-03 05:22:52 PMT2 21.33°C
2026-09-03 05:22:33 PMT2 1.56% 1.2% 101% 1810622 4.2 V
2026-09-03 05:20:54 DJMH 0.37% 0.0% 86% 16929996 4.03 V
2026-09-03 05:20:53 DJMH 0.37% 0.0% 86% 16929996 4.03 V
2026-09-03 05:17:38 IIXF 1.38% 4.0% 101% 1177172 4.28 V
2026-09-03 05:17:37 IIXF 1.38% 4.0% 101% 1177172 4.28 V
2026-09-03 05:17:34 J8ke
2026-09-03 05:17:34 J8ke
2026-09-03 05:17:34 J8ke
2026-09-03 05:16:51 IIXF 854.96 hPa 48.93% 13.94°C 118.31 Ohm
2026-09-03 05:16:51 IIXF 854.96 hPa 48.93% 13.94°C 118.31 Ohm
2026-09-03 05:14:30 LMGB 0.38% 1.1% 101% 1028412 -0.0 V
2026-09-03 05:14:30 LMGB 0.38% 1.1% 101% 1028412 -0.0 V
2026-09-03 05:11:41 ah03 0.86% 4.8% 74% 3909196 3.94 V
2026-09-03 05:11:38 ah03 0.86% 4.8% 74% 3909196 3.94 V
2026-09-03 05:11:36 ah03 0.86% 4.8% 74% 3909196 3.94 V
2026-09-03 05:11:36 ah03 0.86% 4.8% 74% 3909196 3.94 V
2026-09-03 05:10:28 ah03
2026-09-03 05:10:28 ah03
2026-09-03 05:10:25 ah03
2026-09-03 05:10:23 ah03 696.34 hPa 79.72% 27.0°C
2026-09-03 05:10:23 ah03 696.34 hPa 79.72% 27.0°C
2026-09-03 05:08:12 LML2 0.38% 0.0% 100% 553063 4.14 V
2026-09-03 05:08:11 LML2 0.38% 0.0% 100% 553063 4.14 V
2026-09-03 05:07:26 Rhee 1.11% 2.3% 95% 55337 4.05 V
2026-09-03 05:07:26 Rhee 1.11% 2.3% 95% 55337 4.05 V
2026-09-03 05:07:26 Rhee 1.11% 2.3% 95% 55337 4.05 V
2026-09-03 05:05:08 ah01 0.4% 1.4% 97% 6201424 4.15 V
2026-09-03 05:05:08 ah01 0.4% 1.4% 97% 6201424 4.15 V
2026-09-03 05:03:43 5RC 0.75% 2.3% 101% 387375 4.22 V
2026-09-03 05:03:43 5RC 0.75% 2.3% 101% 387375 4.22 V
2026-09-03 05:03:43 5RC 1007.34 hPa 68.65% 19.39°C
2026-09-03 05:03:28 ah02 76.91% 16.0°C
2026-09-03 05:03:26 ah02 76.91% 16.0°C
2026-09-03 05:03:26 ah02 76.91% 16.0°C
2026-09-03 05:03:23 ah02 76.91% 16.0°C
2026-09-03 05:03:22 ah02 76.91% 16.0°C
2026-09-03 05:03:00 ah02 0.04% 12.5% 66% 61 3.85 V
2026-09-03 05:03:00 ah02 0.04% 12.5% 66% 61 3.85 V
2026-09-03 05:02:59 ah02 0.04% 12.5% 66% 61 3.85 V
2026-09-03 05:02:03 LRX1 0.8% 3.6% 101% 8203185 4.84 V
2026-09-03 05:01:59 LRX1 0.8% 3.6% 101% 8203185 4.84 V
2026-09-03 05:01:58 LRX1 0.8% 3.6% 101% 8203185 4.84 V
2026-09-03 05:01:55 LRX1 0.8% 3.6% 101% 8203185 4.84 V
2026-09-03 05:01:55 LRX1 0.8% 3.6% 101% 8203185 4.84 V
2026-09-03 05:01:53 RF03 0.06% 1.2% 99% 1199342 4.19 V
2026-09-03 05:01:53 RF03 0.06% 1.2% 99% 1199342 4.19 V
2026-09-03 05:01:53 RF03 0.06% 1.2% 99% 1199342 4.19 V
2026-09-03 05:01:49 RF03 0.06% 1.2% 99% 1199342 4.19 V
2026-09-03 05:01:49 RF03 0.06% 1.2% 99% 1199342 4.19 V
2026-09-03 05:01:49 RF03 0.06% 1.2% 99% 1199342 4.19 V
2026-09-03 04:59:57 EEPa 851.11 hPa 45.23% 21.76°C
2026-09-03 04:59:57 EEPa 851.11 hPa 45.23% 21.76°C
2026-09-03 04:59:03 Jim1 1.28% 10.4% 92% 17384664 4.08 V
2026-09-03 04:59:03 Jim1 1.28% 10.4% 92% 17384664 4.08 V
2026-09-03 04:58:38 IIXF 1.35% 2.3% 101% 1176032 4.33 V
2026-09-03 04:58:37 IIXF 1.35% 2.3% 101% 1176032 4.33 V
2026-09-03 04:58:37 EN11 0.09% 7.3% 101% 65515 4.08 V
2026-09-03 04:58:36 EN11 0.09% 7.3% 101% 65515 4.08 V
2026-09-03 04:58:36 EN11 0.09% 7.3% 101% 65515 4.08 V
2026-09-03 04:56:06 IIXF 854.92 hPa 47.05% 14.7°C 118.98 Ohm
2026-09-03 04:56:05 IIXF 854.92 hPa 47.05% 14.7°C 118.98 Ohm
2026-09-03 04:55:28 htec 2.54% 8.3% 101% 72189 4.28 V
2026-09-03 04:55:27 htec 2.54% 8.3% 101% 72189 4.28 V
2026-09-03 04:55:27 htec 2.54% 8.3% 101% 72189 4.28 V
2026-09-03 04:55:24 htec 2.54% 8.3% 101% 72189 4.28 V
2026-09-03 04:55:24 htec 2.54% 8.3% 101% 72189 4.28 V
2026-09-03 04:54:58 3bb8 1.73% 4.3% 101% 2386974 5.05 V
2026-09-03 04:54:57 3bb8 1.73% 4.3% 101% 2386974 5.05 V
2026-09-03 04:53:38 XYZJ 1.22% 9.0% 42% 646399 3.65 V
2026-09-03 04:53:38 XYZJ 1.22% 9.0% 42% 646399 3.65 V
2026-09-03 04:53:36 XYZJ 1.22% 9.0% 42% 646399 3.65 V
2026-09-03 04:53:34 XYZJ 1.22% 9.0% 42% 646399 3.65 V
2026-09-03 04:53:33 XYZJ 1.22% 9.0% 42% 646399 3.65 V
2026-09-03 04:53:03 PMT2 21.38°C
2026-09-03 04:53:02 PMT2 21.38°C
2026-09-03 04:52:54 EEPr 0.3% 2.8% 101% 2312671 4.34 V
2026-09-03 04:52:54 EEPr 0.3% 2.8% 101% 2312671 4.34 V
2026-09-03 04:52:53 PMT2 21.38°C
2026-09-03 04:52:52 PMT2 21.38°C
2026-09-03 04:52:51 PMT2 21.38°C
2026-09-03 04:52:40 PMT2 1.49% 0.0% 101% 1808821 4.2 V
2026-09-03 04:52:39 PMT2 1.49% 0.0% 101% 1808821 4.2 V
2026-09-03 04:52:35 PMT2 1.49% 0.0% 101% 1808821 4.2 V
2026-09-03 04:52:33 PMT2 1.49% 0.0% 101% 1808821 4.2 V
2026-09-03 04:52:32 PMT2 1.49% 0.0% 101% 1808821 4.2 V
2026-09-03 04:51:11 7274 1.04% 2.1% 77% 2417472 3.92 V
2026-09-03 04:51:10 7274 1.04% 2.1% 77% 2417472 3.92 V
2026-09-03 04:51:01 RF01 0.18% 0.0% 101% 1429063 4.25 V
2026-09-03 04:51:01 RF01 0.18% 0.0% 101% 1429063 4.25 V
2026-09-03 04:51:01 RF01 0.18% 0.0% 101% 1429063 4.25 V
2026-09-03 04:48:13 PTRH 0.36% 0.0% 60% 1440442 3.8 V
2026-09-03 04:48:13 PTRH 0.36% 0.0% 60% 1440442 3.8 V
2026-09-03 04:44:07 ah01 0.5% 0.0% 96% 6200163 4.15 V
2026-09-03 04:44:07 ah01 0.5% 0.0% 96% 6200163 4.15 V
2026-09-03 04:43:29 Rhee 0.97% 0.0% 95% 53896 4.06 V
2026-09-03 04:43:28 Rhee 0.97% 0.0% 95% 53896 4.06 V
2026-09-03 04:43:28 Rhee 0.97% 0.0% 95% 53896 4.06 V
2026-09-03 04:42:21 EN06 0.09% 0.0% 81% 131777 4.0 V
2026-09-03 04:42:21 EN06 0.09% 0.0% 81% 131777 4.0 V
2026-09-03 04:41:10 ah03 0.88% 3.7% 75% 3907360 3.94 V
2026-09-03 04:41:09 ah03 0.88% 3.7% 75% 3907360 3.94 V
2026-09-03 04:41:08 ah03 0.88% 3.7% 75% 3907360 3.94 V
2026-09-03 04:41:01 ah03 0.88% 3.7% 75% 3907360 3.94 V
2026-09-03 04:41:01 ah03 0.88% 3.7% 75% 3907360 3.94 V
2026-09-03 04:40:33 ah03
2026-09-03 04:40:30 ah03
2026-09-03 04:40:28 ah03
2026-09-03 04:40:27 ah03
2026-09-03 04:38:30 LMGB 0.38% 1.7% 101% 1026251 -0.0 V
2026-09-03 04:38:29 LMGB 0.38% 1.7% 101% 1026251 -0.0 V
2026-09-03 04:38:00 LRX1 0.84% 0.0% 101% 8201745 4.84 V
2026-09-03 04:38:00 LRX1 0.84% 0.0% 101% 8201745 4.84 V
2026-09-03 04:37:58 LRX1 0.84% 0.0% 101% 8201745 4.84 V
2026-09-03 04:37:58 LRX1 0.84% 0.0% 101% 8201745 4.84 V
2026-09-03 04:37:37 IIXF 1.34% 1.6% 62% 1174772 3.82 V
2026-09-03 04:37:37 IIXF 1.34% 1.6% 62% 1174772 3.82 V
2026-09-03 04:37:12 DOS 1.33% 2.2% 101% 236001 4.23 V
2026-09-03 04:37:12 DOS 1.33% 2.2% 101% 236001 4.23 V
2026-09-03 04:36:00 EN05 0.57% 3.2% 101% 42487 4.2 V
2026-09-03 04:35:55 EN05 0.57% 3.2% 101% 42487 4.2 V
2026-09-03 04:35:06 IIXF 854.95 hPa 44.82% 15.46°C 131.45 Ohm
2026-09-03 04:35:05 IIXF 854.95 hPa 44.82% 15.46°C 131.45 Ohm
2026-09-03 04:33:42 5RC 0.62% 0.0% 98% 385575 4.16 V
2026-09-03 04:33:42 5RC 1007.36 hPa 68.85% 18.73°C
2026-09-03 04:33:42 5RC 0.62% 0.0% 98% 385575 4.16 V
2026-09-03 04:33:15 dc64 0.11% 0.0% 77% 1318993 3.96 V
2026-09-03 04:33:15 dc64 0.11% 0.0% 77% 1318993 3.96 V
2026-09-03 04:32:32 BB04 1.17% 8.1% 101% 890112 -0.0 V
2026-09-03 04:32:31 BB04 1.17% 8.1% 101% 890112 -0.0 V
2026-09-03 04:32:30 BB04 1.17% 8.1% 101% 890112 -0.0 V
2026-09-03 04:32:30 BB04 1.17% 8.1% 101% 890112 -0.0 V
2026-09-03 04:32:27 LML2 0.36% 0.0% 100% 550903 4.14 V
2026-09-03 04:32:26 LML2 0.36% 0.0% 100% 550903 4.14 V
2026-09-03 04:32:11 LML2 0.36% 0.0% 100% 550903 4.14 V
2026-09-03 04:32:11 LML2 0.36% 0.0% 100% 550903 4.14 V
2026-09-03 04:31:52 RF03 0.04% 0.0% 99% 1197542 4.19 V
2026-09-03 04:31:52 RF03 0.04% 0.0% 99% 1197542 4.19 V
2026-09-03 04:31:52 RF03 0.04% 0.0% 99% 1197542 4.19 V
2026-09-03 04:31:49 RF03 0.04% 0.0% 99% 1197542 4.19 V
2026-09-03 04:31:49 RF03 0.04% 0.0% 99% 1197542 4.19 V
2026-09-03 04:31:49 RF03 0.04% 0.0% 99% 1197542 4.19 V
2026-09-03 04:29:31 J8ke 0.38 V
2026-09-03 04:29:31 J8ke 0.38 V
2026-09-03 04:29:30 J8ke 0.38 V
2026-09-03 04:29:15 J8ke
2026-09-03 04:29:15 J8ke
2026-09-03 04:29:15 J8ke
2026-09-03 04:28:55 PMT2 21.32°C
2026-09-03 04:28:55 PMT2 21.32°C
2026-09-03 04:28:53 PMT2 21.32°C
2026-09-03 04:28:51 PMT2 21.32°C
2026-09-03 04:28:51 PMT2 21.32°C
2026-09-03 04:28:39 PMT2 1.6% 5.7% 101% 1807380 4.2 V
2026-09-03 04:28:39 PMT2 1.6% 5.7% 101% 1807380 4.2 V
2026-09-03 04:28:34 PMT2 1.6% 5.7% 101% 1807380 4.2 V
2026-09-03 04:28:32 PMT2 1.6% 5.7% 101% 1807380 4.2 V
2026-09-03 04:28:32 PMT2 1.6% 5.7% 101% 1807380 4.2 V
2026-09-03 04:23:50 EEPa 851.15 hPa 45.26% 21.95°C
2026-09-03 04:23:49 EEPa 851.15 hPa 45.26% 21.95°C
2026-09-03 04:23:11 ah01 0.58% 0.0% 97% 6198902 4.15 V
2026-09-03 04:23:08 ah01 0.58% 0.0% 97% 6198902 4.15 V
2026-09-03 04:23:06 ah01 0.58% 0.0% 97% 6198902 4.15 V
2026-09-03 04:23:06 ah01 0.58% 0.0% 97% 6198902 4.15 V
2026-09-03 04:22:48 EEPr 0.3% 3.2% 101% 2310865 4.34 V
2026-09-03 04:22:48 EEPr 0.3% 3.2% 101% 2310865 4.34 V
2026-09-03 04:20:54 DJMH 0.36% 0.0% 87% 16926396 4.04 V
2026-09-03 04:20:54 DJMH 0.36% 0.0% 87% 16926396 4.04 V
2026-09-03 04:19:28 Rhee 0.87% 0.0% 95% 52456 4.07 V
2026-09-03 04:19:28 Rhee 0.87% 0.0% 95% 52456 4.07 V
2026-09-03 04:19:28 Rhee 0.87% 0.0% 95% 52456 4.07 V
2026-09-03 04:16:37 IIXF 1.34% 3.9% 66% 1173512 3.86 V
2026-09-03 04:16:37 IIXF 1.34% 3.9% 66% 1173512 3.86 V
2026-09-03 04:15:09 7274 1.06% 5.4% 79% 2415311 3.94 V
2026-09-03 04:15:08 7274 1.06% 5.4% 79% 2415311 3.94 V
2026-09-03 04:14:06 IIXF 854.95 hPa 43.18% 16.11°C 141.28 Ohm
2026-09-03 04:14:05 IIXF 854.95 hPa 43.18% 16.11°C 141.28 Ohm
2026-09-03 04:13:57 LRX1 0.68% 2.1% 101% 8200305 4.84 V
2026-09-03 04:13:55 LRX1 0.68% 2.1% 101% 8200305 4.84 V
2026-09-03 04:13:54 LRX1 0.68% 2.1% 101% 8200305 4.84 V
2026-09-03 04:12:13 PTRH 0.38% 0.0% 58% 1438282 3.79 V
2026-09-03 04:12:13 PTRH 0.38% 0.0% 58% 1438282 3.79 V
2026-09-03 04:11:46 EEPa 0.13% 0.0% 100% 6837391 4.14 V
2026-09-03 04:11:46 EEPa 0.13% 0.0% 100% 6837391 4.14 V
2026-09-03 04:11:14 J8ke 1.49% 5.6% 101% 228166 5.08 V
2026-09-03 04:11:14 J8ke 1.49% 5.6% 101% 228166 5.08 V
2026-09-03 04:11:14 J8ke 1.49% 5.6% 101% 228166 5.08 V
2026-09-03 04:10:48 tge0 1.55% 8.5% 94% 9847555 4.11 V
2026-09-03 04:10:48 tge0 1.55% 8.5% 94% 9847555 4.11 V
2026-09-03 04:10:24 ah03
2026-09-03 04:10:20 ah03
2026-09-03 04:10:19 ah03 696.34 hPa 79.86% 27.0°C
2026-09-03 04:10:19 ah03 696.34 hPa 79.86% 27.0°C
2026-09-03 04:10:17 ah03 696.34 hPa 79.86% 27.0°C
2026-09-03 04:10:15 ah03 696.34 hPa 79.86% 27.0°C
2026-09-03 04:10:15 ah03 696.34 hPa 79.86% 27.0°C
2026-09-03 04:10:08 ah03 0.85% 3.1% 75% 3905497 3.94 V
2026-09-03 04:10:07 ah03 0.85% 3.1% 75% 3905497 3.94 V
2026-09-03 04:05:56 EN05 0.63% 0.0% 101% 40687 4.2 V
2026-09-03 04:05:56 EN05 0.63% 0.0% 101% 40687 4.2 V
2026-09-03 04:05:52 EN05 0.63% 0.0% 101% 40687 4.2 V
2026-09-03 04:05:52 EN05 0.63% 0.0% 101% 40687 4.2 V
2026-09-03 04:05:38 XYZJ 1.15% 9.0% 60% 643519 3.8 V
2026-09-03 04:05:37 XYZJ 1.15% 9.0% 60% 643519 3.8 V
2026-09-03 04:05:36 XYZJ 1.15% 9.0% 60% 643519 3.8 V
2026-09-03 04:05:33 XYZJ 1.15% 9.0% 60% 643519 3.8 V
2026-09-03 04:05:33 XYZJ 1.15% 9.0% 60% 643519 3.8 V
2026-09-03 04:04:52 PMT2 21.56°C
2026-09-03 04:04:51 PMT2 21.56°C
2026-09-03 04:04:50 PMT2 21.56°C
2026-09-03 04:04:36 PMT2 1.39% 1.8% 101% 1805940 4.2 V
2026-09-03 04:04:35 PMT2 1.39% 1.8% 101% 1805940 4.2 V
2026-09-03 04:04:33 PMT2 1.39% 1.8% 101% 1805940 4.2 V
2026-09-03 04:04:32 PMT2 1.39% 1.8% 101% 1805940 4.2 V
2026-09-03 04:04:31 PMT2 1.39% 1.8% 101% 1805940 4.2 V
2026-09-03 04:03:42 5RC 1007.13 hPa 68.39% 19.04°C
2026-09-03 04:03:42 5RC 0.78% 0.0% 94% 383774 4.12 V
2026-09-03 04:03:41 5RC 0.78% 0.0% 94% 383774 4.12 V
2026-09-03 04:03:01 RF01 0.23% 4.1% 99% 1426182 4.18 V
2026-09-03 04:03:01 RF01 0.23% 4.1% 99% 1426182 4.18 V
2026-09-03 04:03:00 RF01 0.23% 4.1% 99% 1426182 4.18 V
2026-09-03 04:02:29 LMGB 0.32% 0.5% 101% 1024091 -0.0 V
2026-09-03 04:02:29 LMGB 0.32% 0.5% 101% 1024091 -0.0 V
2026-09-03 04:02:10 ah01 0.62% 0.0% 96% 6197641 4.14 V
2026-09-03 04:02:08 ah01 0.62% 0.0% 96% 6197641 4.14 V
2026-09-03 04:02:08 ah01 0.62% 0.0% 96% 6197641 4.14 V
2026-09-03 04:02:05 ah01 0.62% 0.0% 96% 6197641 4.14 V
2026-09-03 04:02:05 ah01 0.62% 0.0% 96% 6197641 4.14 V
2026-09-03 04:02:01 RF03 0.07% 2.4% 99% 1195741 4.19 V
2026-09-03 04:02:01 RF03 0.07% 2.4% 99% 1195741 4.19 V
2026-09-03 04:01:57 RF03 0.07% 2.4% 99% 1195741 4.19 V
2026-09-03 04:01:57 RF03 0.07% 2.4% 99% 1195741 4.19 V
2026-09-03 04:01:49 RF03 0.07% 2.4% 99% 1195741 4.19 V
2026-09-03 04:01:48 RF03 0.07% 2.4% 99% 1195741 4.19 V
2026-09-03 04:01:48 RF03 0.07% 2.4% 99% 1195741 4.19 V
2026-09-03 04:00:58 ah02 72.17% 16.45°C
2026-09-03 04:00:58 ah02 72.17% 16.45°C
2026-09-03 04:00:56 ah02 72.17% 16.45°C
2026-09-03 04:00:54 ah02 72.17% 16.45°C
2026-09-03 04:00:53 ah02 72.17% 16.45°C
2026-09-03 04:00:34 ah02 0.04% 15.7% 66% 60 3.86 V
2026-09-03 04:00:33 ah02 0.04% 15.7% 66% 60 3.86 V
2026-09-03 04:00:32 ah02 0.04% 15.7% 66% 60 3.86 V
2026-09-03 04:00:28 ah02 0.04% 15.7% 66% 60 3.86 V
2026-09-03 04:00:28 ah02 0.04% 15.7% 66% 60 3.86 V
2026-09-03 03:58:34 EN11 0.03% 4.3% 101% 61912 4.08 V
2026-09-03 03:56:28 htec 2.25% 3.5% 101% 68649 4.27 V
2026-09-03 03:56:27 htec 2.25% 3.5% 101% 68649 4.27 V
2026-09-03 03:56:27 htec 2.25% 3.5% 101% 68649 4.27 V
2026-09-03 03:56:24 htec 2.25% 3.5% 101% 68649 4.27 V
2026-09-03 03:56:23 htec 2.25% 3.5% 101% 68649 4.27 V
2026-09-03 03:56:11 LML2 0.32% 0.0% 100% 548742 4.14 V
2026-09-03 03:56:10 LML2 0.32% 0.0% 100% 548742 4.14 V
2026-09-03 03:55:37 IIXF 1.3% 1.1% 76% 1172252 3.96 V
2026-09-03 03:55:37 IIXF 1.3% 1.1% 76% 1172252 3.96 V
2026-09-03 03:54:57 3bb8 1.93% 4.4% 101% 2383374 5.05 V
2026-09-03 03:54:57 3bb8 1.93% 4.4% 101% 2383374 5.05 V
2026-09-03 03:53:05 IIXF 854.98 hPa 42.43% 16.4°C 153.26 Ohm
2026-09-03 03:53:05 IIXF 854.98 hPa 42.43% 16.4°C 153.26 Ohm
2026-09-03 03:52:42 EEPr 0.21% 0.0% 101% 2309059 4.34 V
2026-09-03 03:52:42 EEPr 0.21% 0.0% 101% 2309059 4.34 V
2026-09-03 03:50:03 LRX1 1001.54 hPa 47.15% 21.67°C
2026-09-03 03:50:02 LRX1 1001.54 hPa 47.15% 21.67°C
2026-09-03 03:50:01 LRX1 1001.54 hPa 47.15% 21.67°C
2026-09-03 03:49:57 LRX1 1001.54 hPa 47.15% 21.67°C
2026-09-03 03:49:17 DOS 1.13% 1.2% 100% 233120 4.19 V
2026-09-03 03:49:16 DOS 1.13% 1.2% 100% 233120 4.19 V
2026-09-03 03:49:11 DOS 1.13% 1.2% 100% 233120 4.19 V
2026-09-03 03:49:11 DOS 1.13% 1.2% 100% 233120 4.19 V
2026-09-03 03:47:42 EEPa 851.39 hPa 45.36% 22.05°C
2026-09-03 03:47:42 EEPa 851.39 hPa 45.36% 22.05°C
2026-09-03 03:47:40 EN01 0.02% 0.0% 44% 224039 3.67 V
2026-09-03 03:47:36 EN01 0.02% 0.0% 44% 224039 3.67 V
2026-09-03 03:47:36 EN01 0.02% 0.0% 44% 224039 3.67 V
2026-09-03 03:44:31 BB04 0.89% 6.0% 101% 887232 -0.0 V
2026-09-03 03:44:29 BB04 0.89% 6.0% 101% 887232 -0.0 V
2026-09-03 03:44:29 BB04 0.89% 6.0% 101% 887232 -0.0 V
2026-09-03 03:44:29 BB04 0.89% 6.0% 101% 887232 -0.0 V
2026-09-03 03:42:19 EN06 0.1% 0.0% 82% 128176 4.01 V
2026-09-03 03:41:10 ah01 0.6% 3.8% 96% 6196380 4.15 V
2026-09-03 03:41:09 ah01 0.6% 3.8% 96% 6196380 4.15 V
2026-09-03 03:41:06 ah01 0.6% 3.8% 96% 6196380 4.15 V
2026-09-03 03:41:06 ah01 0.6% 3.8% 96% 6196380 4.15 V
2026-09-03 03:41:03 ah01 0.6% 3.8% 96% 6196380 4.15 V
2026-09-03 03:41:03 ah01 0.6% 3.8% 96% 6196380 4.15 V
2026-09-03 03:40:52 PMT2 21.45°C
2026-09-03 03:40:50 PMT2 21.45°C
2026-09-03 03:40:50 PMT2 21.45°C
2026-09-03 03:40:36 PMT2 1.34% 4.2% 101% 1804499 4.2 V
2026-09-03 03:40:35 PMT2 1.34% 4.2% 101% 1804499 4.2 V
2026-09-03 03:40:33 PMT2 1.34% 4.2% 101% 1804499 4.2 V
2026-09-03 03:40:31 PMT2 1.34% 4.2% 101% 1804499 4.2 V
2026-09-03 03:40:31 PMT2 1.34% 4.2% 101% 1804499 4.2 V
2026-09-03 03:39:19 ah03 696.34 hPa 80.19% 27.0°C
2026-09-03 03:39:17 ah03 696.34 hPa 80.19% 27.0°C
2026-09-03 03:39:16 ah03 696.34 hPa 80.19% 27.0°C
2026-09-03 03:39:16 ah03 696.34 hPa 80.19% 27.0°C
2026-09-03 03:39:15 ah03 0.85% 2.2% 75% 3903640 3.94 V
2026-09-03 03:39:14 ah03 0.85% 2.2% 75% 3903640 3.94 V
2026-09-03 03:39:13 7274 1.03% 3.3% 81% 2413151 3.96 V
2026-09-03 03:39:13 ah03 0.85% 2.2% 75% 3903640 3.94 V
2026-09-03 03:39:13 7274 1.03% 3.3% 81% 2413151 3.96 V
2026-09-03 03:39:10 ah03 0.85% 2.2% 75% 3903640 3.94 V
2026-09-03 03:39:10 ah03 0.85% 2.2% 75% 3903640 3.94 V
2026-09-03 03:36:13 PTRH 0.36% 0.0% 59% 1436122 3.79 V
2026-09-03 03:36:12 PTRH 0.36% 0.0% 59% 1436122 3.79 V
2026-09-03 03:35:58 EN05 0.45% 7.3% 101% 38886 4.21 V
2026-09-03 03:35:55 EN05 0.45% 7.3% 101% 38886 4.21 V
2026-09-03 03:35:55 EN05 0.45% 7.3% 101% 38886 4.21 V
2026-09-03 03:34:37 IIXF 1.3% 2.3% 69% 1170992 3.89 V
2026-09-03 03:34:37 IIXF 1.3% 2.3% 69% 1170992 3.89 V
2026-09-03 03:33:41 5RC 1007.02 hPa 68.1% 19.44°C
2026-09-03 03:33:41 5RC 0.69% 0.0% 101% 381973 4.2 V
2026-09-03 03:33:40 5RC 0.69% 0.0% 101% 381973 4.2 V
2026-09-03 03:32:05 IIXF 854.99 hPa 40.13% 17.3°C 175.13 Ohm
2026-09-03 03:32:05 IIXF 854.99 hPa 40.13% 17.3°C 175.13 Ohm
2026-09-03 03:31:54 RF03 0.07% 1.1% 99% 1193941 4.19 V
2026-09-03 03:31:53 RF03 0.07% 1.1% 99% 1193941 4.19 V
2026-09-03 03:31:53 RF03 0.07% 1.1% 99% 1193941 4.19 V
2026-09-03 03:31:48 RF03 0.07% 1.1% 99% 1193941 4.19 V
2026-09-03 03:31:48 RF03 0.07% 1.1% 99% 1193941 4.19 V
2026-09-03 03:31:48 RF03 0.07% 1.1% 99% 1193941 4.19 V
2026-09-03 03:29:03 LRX1 1001.51 hPa 47.12% 21.73°C
2026-09-03 03:29:01 LRX1 1001.51 hPa 47.12% 21.73°C
2026-09-03 03:29:00 LRX1 1001.51 hPa 47.12% 21.73°C
2026-09-03 03:26:29 LMGB 0.32% 0.5% 101% 1021931 -0.0 V
2026-09-03 03:26:28 LMGB 0.32% 0.5% 101% 1021931 -0.0 V
2026-09-03 03:23:03 Jim1 1.07% 3.3% 92% 17378903 4.08 V
2026-09-03 03:23:03 Jim1 1.07% 3.3% 92% 17378903 4.08 V
2026-09-03 03:22:58 Jim1 1.07% 3.3% 92% 17378903 4.08 V
2026-09-03 03:22:58 Jim1 1.07% 3.3% 92% 17378903 4.08 V
2026-09-03 03:22:58 Jim1 1.07% 3.3% 92% 17378903 4.08 V
2026-09-03 03:22:36 EEPr 0.23% 0.0% 101% 2307253 4.34 V
2026-09-03 03:22:35 EEPr 0.23% 0.0% 101% 2307253 4.34 V
2026-09-03 03:21:16 dc64 0.18% 0.0% 78% 1314673 3.98 V
2026-09-03 03:21:16 dc64 0.18% 0.0% 78% 1314673 3.98 V
2026-09-03 03:20:11 LML2 0.34% 0.0% 100% 546582 4.14 V
2026-09-03 03:20:10 LML2 0.34% 0.0% 100% 546582 4.14 V
2026-09-03 03:20:09 ah01 0.59% 0.0% 96% 6195119 4.15 V
2026-09-03 03:20:07 ah01 0.59% 0.0% 96% 6195119 4.15 V
2026-09-03 03:20:06 ah01 0.59% 0.0% 96% 6195119 4.15 V
2026-09-03 03:20:03 ah01 0.59% 0.0% 96% 6195119 4.15 V
2026-09-03 03:20:02 ah01 0.59% 0.0% 96% 6195119 4.15 V
2026-09-03 03:17:37 XYZJ 1.16% 5.1% 38% 640639 3.61 V
2026-09-03 03:17:37 XYZJ 1.16% 5.1% 38% 640639 3.61 V
2026-09-03 03:17:36 XYZJ 1.16% 5.1% 38% 640639 3.61 V
2026-09-03 03:17:33 XYZJ 1.16% 5.1% 38% 640639 3.61 V
2026-09-03 03:17:33 XYZJ 1.16% 5.1% 38% 640639 3.61 V
2026-09-03 03:16:49 PMT2 21.44°C
2026-09-03 03:16:49 PMT2 21.44°C
2026-09-03 03:16:35 PMT2 1.38% 3.8% 101% 1803059 4.2 V
2026-09-03 03:16:35 PMT2 1.38% 3.8% 101% 1803059 4.2 V
2026-09-03 03:16:33 PMT2 1.38% 3.8% 101% 1803059 4.2 V
2026-09-03 03:16:31 PMT2 1.38% 3.8% 101% 1803059 4.2 V
2026-09-03 03:16:30 PMT2 1.38% 3.8% 101% 1803059 4.2 V
2026-09-03 03:15:06 RF01 0.1% 0.0% 101% 1423302 4.22 V
2026-09-03 03:15:05 RF01 0.1% 0.0% 101% 1423302 4.22 V
2026-09-03 03:15:05 RF01 0.1% 0.0% 101% 1423302 4.22 V
2026-09-03 03:15:00 RF01 0.1% 0.0% 101% 1423302 4.22 V
2026-09-03 03:15:00 RF01 0.1% 0.0% 101% 1423302 4.22 V
2026-09-03 03:15:00 RF01 0.1% 0.0% 101% 1423302 4.22 V
2026-09-03 03:13:37 IIXF 1.3% 3.9% 77% 1169732 3.96 V
2026-09-03 03:13:37 IIXF 1.3% 3.9% 77% 1169732 3.96 V
2026-09-03 03:11:34 EEPa 851.84 hPa 45.31% 22.23°C
2026-09-03 03:11:34 EEPa 851.84 hPa 45.31% 22.23°C
2026-09-03 03:11:05 IIXF 855.09 hPa 39.32% 17.73°C 149.98 Ohm
2026-09-03 03:11:05 IIXF 855.09 hPa 39.32% 17.73°C 149.98 Ohm
2026-09-03 03:09:00 ah03
2026-09-03 03:09:00 ah03
2026-09-03 03:08:57 ah03
2026-09-03 03:08:57 ah03
2026-09-03 03:08:53 ah03 0.85% 2.1% 75% 3901813 3.95 V
2026-09-03 03:08:51 ah03 696.34 hPa 80.04% 27.0°C
2026-09-03 03:08:50 ah03 696.34 hPa 80.04% 27.0°C
2026-09-03 03:08:49 ah03 0.85% 2.1% 75% 3901813 3.95 V
2026-09-03 03:08:47 ah03 0.85% 2.1% 75% 3901813 3.95 V
2026-09-03 03:08:46 ah03 0.85% 2.1% 75% 3901813 3.95 V
2026-09-03 03:05:58 EN05 0.39% 0.0% 101% 37085 4.2 V
2026-09-03 03:05:00 LRX1 0.79% 0.0% 101% 8196164 4.84 V
2026-09-03 03:04:58 LRX1 0.79% 0.0% 101% 8196164 4.84 V
2026-09-03 03:04:55 LRX1 0.79% 0.0% 101% 8196164 4.84 V
2026-09-03 03:04:55 LRX1 0.79% 0.0% 101% 8196164 4.84 V
2026-09-03 03:03:51 5RC 1007.37 hPa 67.63% 19.95°C
2026-09-03 03:03:41 5RC 0.59% 2.0% 92% 380173 4.09 V
2026-09-03 03:03:41 5RC 1007.37 hPa 67.63% 19.95°C
2026-09-03 03:03:40 5RC 0.59% 2.0% 92% 380173 4.09 V
2026-09-03 03:03:10 7274 1.07% 2.3% 82% 2410991 3.96 V
2026-09-03 03:03:09 7274 1.07% 2.3% 82% 2410991 3.96 V
2026-09-03 03:01:51 RF03 0.05% 2.2% 99% 1192140 4.19 V
2026-09-03 03:01:51 RF03 0.05% 2.2% 99% 1192140 4.19 V
2026-09-03 03:01:51 RF03 0.05% 2.2% 99% 1192140 4.19 V
2026-09-03 03:01:47 RF03 0.05% 2.2% 99% 1192140 4.19 V
2026-09-03 03:01:47 RF03 0.05% 2.2% 99% 1192140 4.19 V
2026-09-03 03:01:47 RF03 0.05% 2.2% 99% 1192140 4.19 V
2026-09-03 03:01:21 DOS 1.3% 2.4% 101% 230240 4.24 V
2026-09-03 03:01:19 DOS 1.3% 2.4% 101% 230240 4.24 V
2026-09-03 03:01:19 DOS 1.3% 2.4% 101% 230240 4.24 V
2026-09-03 03:01:12 DOS 1.3% 2.4% 101% 230240 4.24 V
2026-09-03 03:01:12 DOS 1.3% 2.4% 101% 230240 4.24 V
2026-09-03 03:00:12 PTRH 0.34% 0.0% 56% 1433961 3.77 V
2026-09-03 03:00:12 PTRH 0.34% 0.0% 56% 1433961 3.77 V
2026-09-03 02:59:06 ah01 0.56% 6.8% 96% 6193857 4.15 V
2026-09-03 02:59:06 ah01 0.56% 6.8% 96% 6193857 4.15 V
2026-09-03 02:59:04 ah01 0.56% 6.8% 96% 6193857 4.15 V
2026-09-03 02:59:02 ah01 0.56% 6.8% 96% 6193857 4.15 V
2026-09-03 02:59:01 ah01 0.56% 6.8% 96% 6193857 4.15 V
2026-09-03 02:58:34 EN11 0.13% 11.8% 101% 58309 4.08 V
2026-09-03 02:58:30 ah02 73.69% 16.58°C
2026-09-03 02:58:30 ah02 73.69% 16.58°C
2026-09-03 02:58:24 ah02 73.69% 16.58°C
2026-09-03 02:58:22 ah02 73.69% 16.58°C
2026-09-03 02:58:22 ah02 73.69% 16.58°C
2026-09-03 02:58:00 ah02 0.04% 21.9% 67% 61 3.86 V
2026-09-03 02:57:59 ah02 0.04% 21.9% 67% 61 3.86 V
2026-09-03 02:57:56 ah02 0.04% 21.9% 67% 61 3.86 V
Visit MeshInfo-Lite on Github. Also visit the original MeshInfo by Kevin Elliott.